Time;durP1;ratioP1;P1;durP2;ratioP2;P2;SDS_P1;SDS_P2;PMS_P1;PMS_P2;Temp;Humidity;BMP_temperature;BMP_pressure;BME280_temperature;BME280_humidity;BME280_pressure;Samples;Min_cycle;Max_cycle;Signal;HPM_P1;HPM_P2
2021/10/22 00:00:47;;;;;;;1.60;1.10;;;;;;;10.16;53.32;97967.66;235690;1197;24048;-76
2021/10/22 00:05:50;;;;;;;1.60;0.80;;;;;;;10.21;53.65;97970.33;235713;1197;24026;-75
2021/10/22 00:10:53;;;;;;;2.60;1.30;;;;;;;10.20;53.28;97975.86;235592;1197;25167;-76
2021/10/22 00:15:57;;;;;;;2.20;1.20;;;;;;;10.20;53.52;97991.02;235735;1197;24044;-73
2021/10/22 00:21:00;;;;;;;1.50;0.80;;;;;;;10.19;53.58;97985.48;235847;1197;23166;-75
2021/10/22 00:26:03;;;;;;;2.00;1.00;;;;;;;10.19;53.46;97988.14;235673;1197;24053;-76
2021/10/22 00:31:05;;;;;;;2.10;0.90;;;;;;;10.18;53.55;97991.70;235778;1197;24037;-75
2021/10/22 00:36:10;;;;;;;2.40;0.90;;;;;;;10.17;53.85;97992.70;235487;1198;24936;-74
2021/10/22 00:41:15;;;;;;;1.50;0.80;;;;;;;10.16;53.97;97995.34;235623;1197;24815;-75
2021/10/22 00:46:18;;;;;;;2.10;0.70;;;;;;;10.15;53.96;97998.96;235645;1193;25092;-75
2021/10/22 00:51:20;;;;;;;2.70;0.90;;;;;;;10.14;54.13;97999.95;235653;1198;22564;-74
2021/10/22 00:56:24;;;;;;;2.10;0.60;;;;;;;10.13;54.32;98011.46;235630;1190;24245;-76
2021/10/22 01:01:28;;;;;;;1.70;1.00;;;;;;;10.14;54.18;98008.98;235767;1197;24027;-73
2021/10/22 01:06:31;;;;;;;0.60;0.60;;;;;;;10.12;54.40;98010.26;235650;1190;26140;-75
2021/10/22 01:11:35;;;;;;;2.80;1.00;;;;;;;10.10;54.57;98029.67;235727;1193;22488;-75
2021/10/22 01:16:39;;;;;;;1.80;0.90;;;;;;;10.09;54.82;98035.64;235625;1190;24034;-76
2021/10/22 01:21:46;;;;;;;2.50;0.80;;;;;;;10.06;54.88;98039.13;235689;1197;22465;-75
2021/10/22 01:26:51;;;;;;;2.30;1.00;;;;;;;10.04;54.98;98047.58;235775;1197;22443;-75
2021/10/22 01:32:01;;;;;;;1.60;0.80;;;;;;;10.02;55.22;98059.17;235700;1197;24072;-75
2021/10/22 01:37:08;;;;;;;1.30;0.70;;;;;;;10.01;55.47;98065.84;235852;1190;22426;-73
2021/10/22 01:42:10;;;;;;;1.40;0.70;;;;;;;10.00;55.48;98075.45;236141;1196;22441;-76
2021/10/22 01:47:13;;;;;;;1.80;0.60;;;;;;;10.00;55.64;98086.56;235922;1196;23176;-76
2021/10/22 01:52:16;;;;;;;1.40;0.40;;;;;;;10.02;55.81;98078.63;235727;1192;22555;-73
2021/10/22 01:57:19;;;;;;;0.50;0.30;;;;;;;10.05;55.61;98082.52;235704;1198;25193;-75
2021/10/22 02:02:21;;;;;;;1.30;0.50;;;;;;;10.07;55.65;98086.11;235741;1197;22634;-74
2021/10/22 02:07:28;;;;;;;0.70;0.40;;;;;;;10.08;55.63;98099.30;235695;1193;25052;-74
2021/10/22 02:12:42;;;;;;;1.30;0.50;;;;;;;10.08;55.65;98112.80;235751;1190;25397;-74
2021/10/22 02:17:45;;;;;;;1.40;0.20;;;;;;;10.05;55.58;98110.23;235653;1197;24069;-75
2021/10/22 02:22:50;;;;;;;0.50;0.50;;;;;;;10.00;55.76;98118.84;235764;1197;23982;-73
2021/10/22 02:27:53;;;;;;;0.60;0.40;;;;;;;9.95;55.78;98122.38;235778;1193;24232;-76
2021/10/22 02:32:56;;;;;;;0.20;0.20;;;;;;;9.87;55.86;98132.80;236080;1183;24133;-77
2021/10/22 02:37:58;;;;;;;1.10;0.30;;;;;;;9.76;56.09;98140.38;235854;1190;24139;-73
2021/10/22 02:43:10;;;;;;;1.00;0.30;;;;;;;9.65;56.37;98142.52;235699;1190;24087;-75
2021/10/22 02:48:20;;;;;;;0.60;0.30;;;;;;;9.56;56.66;98144.98;235984;1197;23634;-74
2021/10/22 02:53:23;;;;;;;0.60;0.30;;;;;;;9.46;56.74;98149.34;235819;1190;24075;-75
2021/10/22 02:58:26;;;;;;;1.00;0.30;;;;;;;9.35;57.17;98151.78;235793;1190;24085;-75
2021/10/22 03:03:29;;;;;;;0.30;0.20;;;;;;;9.25;57.44;98160.02;235809;1183;24184;-75
2021/10/22 03:08:33;;;;;;;0.30;0.20;;;;;;;9.19;57.69;98165.09;235640;1197;24034;-75
2021/10/22 03:13:37;;;;;;;2.10;0.40;;;;;;;9.13;57.93;98166.22;235629;1198;22503;-74
2021/10/22 03:18:47;;;;;;;1.20;0.50;;;;;;;9.04;58.17;98180.95;235711;1190;22434;-75
2021/10/22 03:23:58;;;;;;;2.80;0.50;;;;;;;8.94;58.43;98201.11;235638;1190;23998;-75
2021/10/22 03:29:08;;;;;;;1.50;0.60;;;;;;;8.80;58.65;98212.36;235961;1190;24028;-73
2021/10/22 03:34:26;;;;;;;1.30;0.50;;;;;;;8.59;58.89;98214.07;235791;1198;24165;-74
2021/10/22 03:39:28;;;;;;;0.60;0.50;;;;;;;8.34;59.39;98216.55;235680;1197;22457;-75
2021/10/22 03:44:31;;;;;;;0.60;0.50;;;;;;;8.10;59.71;98219.67;235733;1190;23765;-75
2021/10/22 03:49:33;;;;;;;0.80;0.40;;;;;;;7.92;60.11;98228.05;235701;1197;25198;-73
2021/10/22 03:54:36;;;;;;;1.30;0.30;;;;;;;7.76;60.62;98231.85;235635;1190;24262;-76
2021/10/22 03:59:40;;;;;;;0.70;0.40;;;;;;;7.61;60.72;98234.40;235933;1184;23635;-76
2021/10/22 04:04:42;;;;;;;1.70;0.60;;;;;;;7.48;61.12;98236.59;236000;1198;24052;-75
2021/10/22 04:09:45;;;;;;;2.50;0.80;;;;;;;7.32;61.32;98246.48;235741;1193;22462;-75
2021/10/22 04:14:48;;;;;;;0.70;0.50;;;;;;;7.14;61.79;98247.75;235729;1190;22480;-75
2021/10/22 04:19:52;;;;;;;2.10;0.70;;;;;;;6.95;61.86;98253.21;235785;1183;24107;-73
2021/10/22 04:24:55;;;;;;;2.50;0.60;;;;;;;6.79;61.77;98253.06;235792;1197;24068;-75
2021/10/22 04:29:58;;;;;;;0.80;0.40;;;;;;;6.66;61.86;98258.02;235662;1197;25082;-76
2021/10/22 04:35:02;;;;;;;1.20;0.50;;;;;;;6.54;62.06;98268.31;235794;1197;25196;-74
2021/10/22 04:45:29;;;;;;;1.70;0.80;;;;;;;6.36;62.54;98276.70;235919;1190;22531;-76
2021/10/22 04:50:39;;;;;;;4.60;1.20;;;;;;;6.24;62.65;98279.52;235884;1193;22442;-76
2021/10/22 04:55:43;;;;;;;2.60;0.80;;;;;;;6.11;62.85;98282.84;235867;1197;24100;-74
2021/10/22 05:00:46;;;;;;;3.90;1.10;;;;;;;6.05;63.05;98281.80;235647;1183;25219;-76
2021/10/22 05:05:50;;;;;;;1.20;0.60;;;;;;;6.05;63.29;98286.43;236013;1198;25316;-77
2021/10/22 05:11:00;;;;;;;0.90;0.60;;;;;;;6.09;63.01;98284.08;235827;1190;24066;-76
2021/10/22 05:16:10;;;;;;;3.10;0.90;;;;;;;6.14;62.96;98290.66;235982;1190;24216;-76
2021/10/22 05:21:12;;;;;;;3.60;1.10;;;;;;;6.16;63.10;98292.73;235709;1198;22430;-76
2021/10/22 05:26:15;;;;;;;2.30;1.00;;;;;;;6.17;62.85;98294.33;235901;1197;25279;-74
2021/10/22 05:31:17;;;;;;;3.40;1.20;;;;;;;6.18;62.85;98297.73;235881;1197;22416;-76
2021/10/22 05:36:20;;;;;;;1.80;1.20;;;;;;;6.17;62.61;98300.81;235710;1197;24560;-74
2021/10/22 05:41:23;;;;;;;2.70;0.90;;;;;;;6.16;62.81;98308.20;235931;1196;22556;-75
2021/10/22 05:46:26;;;;;;;3.20;1.40;;;;;;;6.14;62.81;98316.30;235931;1197;24058;-75
2021/10/22 05:51:29;;;;;;;2.70;1.40;;;;;;;6.10;63.28;98324.12;236258;1192;23809;-75
2021/10/22 05:56:31;;;;;;;1.80;1.10;;;;;;;6.01;63.71;98332.27;236535;1197;24018;-75
2021/10/22 06:01:35;;;;;;;3.00;1.70;;;;;;;5.93;64.29;98341.67;236794;1190;22427;-74
2021/10/22 06:06:38;;;;;;;3.10;1.40;;;;;;;5.88;64.73;98349.34;236605;1190;22439;-76
2021/10/22 06:11:41;;;;;;;3.90;1.80;;;;;;;5.86;64.97;98354.27;236584;1190;23172;-75
2021/10/22 06:17:02;;;;;;;3.50;1.70;;;;;;;5.88;65.54;98358.48;236502;1190;24739;-74
2021/10/22 06:27:09;;;;;;;2.00;1.40;;;;;;;6.06;65.89;98369.49;237581;1197;22426;-75
2021/10/22 06:32:12;;;;;;;3.70;1.50;;;;;;;6.18;65.87;98369.05;236921;1197;23961;-76
2021/10/22 06:37:15;;;;;;;2.50;1.50;;;;;;;6.30;65.84;98370.78;236872;1190;23974;-75
2021/10/22 06:42:20;;;;;;;3.30;1.60;;;;;;;6.44;65.57;98368.98;236380;1197;25189;-76
2021/10/22 06:47:22;;;;;;;2.70;1.40;;;;;;;6.63;65.42;98373.08;236115;1198;22469;-75
2021/10/22 06:52:26;;;;;;;3.20;1.80;;;;;;;6.80;65.08;98378.92;236303;1177;22631;-76
2021/10/22 06:57:28;;;;;;;3.90;1.60;;;;;;;6.96;65.22;98387.42;236107;1198;24044;-76
2021/10/22 07:02:31;;;;;;;2.20;1.30;;;;;;;7.14;64.66;98386.38;235952;1197;25095;-76
2021/10/22 07:07:35;;;;;;;10.00;2.90;;;;;;;7.31;64.57;98392.24;236334;1190;25675;-75
2021/10/22 07:12:40;;;;;;;4.40;1.80;;;;;;;7.44;64.17;98393.34;236440;1191;25003;-75
2021/10/22 07:17:45;;;;;;;2.20;1.10;;;;;;;7.55;63.19;98403.29;236419;1190;24074;-76
2021/10/22 07:22:50;;;;;;;4.40;1.70;;;;;;;7.62;62.60;98408.88;237005;1197;22508;-75
2021/10/22 07:27:54;;;;;;;3.60;1.10;;;;;;;7.69;62.70;98411.02;237200;1190;22465;-75
2021/10/22 07:32:57;;;;;;;4.80;1.30;;;;;;;7.77;62.24;98415.70;237177;1197;22437;-72
2021/10/22 07:38:13;;;;;;;3.40;1.30;;;;;;;7.89;62.09;98423.52;235966;1183;24063;-73
2021/10/22 07:43:21;;;;;;;4.30;1.20;;;;;;;8.37;62.28;98430.99;236079;1193;24032;-72
2021/10/22 07:48:24;;;;;;;4.10;1.30;;;;;;;8.63;60.79;98437.00;236206;1190;25225;-70
2021/10/22 07:53:28;;;;;;;4.50;1.00;;;;;;;8.68;59.34;98448.48;236125;1190;24016;-72
2021/10/22 07:58:32;;;;;;;2.80;1.00;;;;;;;8.68;58.55;98448.16;236005;1183;24019;-73
2021/10/22 08:03:36;;;;;;;3.20;1.10;;;;;;;8.71;57.22;98443.23;236121;1197;25137;-72
2021/10/22 08:08:43;;;;;;;3.10;1.20;;;;;;;8.77;57.54;98446.04;236152;1174;22543;-73
2021/10/22 08:13:47;;;;;;;4.20;0.90;;;;;;;8.87;56.97;98451.80;235846;1198;25257;-74
2021/10/22 08:18:52;;;;;;;3.20;1.00;;;;;;;8.99;56.05;98452.89;236607;1191;22428;-73
2021/10/22 08:23:55;;;;;;;2.50;0.80;;;;;;;9.01;54.45;98458.65;236056;1190;24082;-72
2021/10/22 08:28:59;;;;;;;1.50;0.70;;;;;;;9.05;54.98;98455.45;235883;1190;24008;-73
2021/10/22 08:34:01;;;;;;;3.90;0.90;;;;;;;9.13;54.75;98458.61;236360;1197;22430;-73
2021/10/22 08:39:04;;;;;;;3.60;1.00;;;;;;;9.23;54.08;98451.53;236158;1190;24202;-73
2021/10/22 08:44:09;;;;;;;2.50;0.70;;;;;;;9.33;52.62;98451.35;236207;1197;22596;-73
2021/10/22 08:49:13;;;;;;;2.70;1.20;;;;;;;9.45;53.11;98459.38;237802;1190;22467;-71
2021/10/22 08:54:23;;;;;;;4.10;0.80;;;;;;;9.60;52.38;98467.30;235988;1197;23972;-71
2021/10/22 08:59:46;;;;;;;5.80;0.90;;;;;;;9.69;51.10;98469.30;236331;1175;24053;-72
2021/10/22 09:04:59;;;;;;;2.20;0.70;;;;;;;9.77;50.72;98467.38;235945;1190;25061;-73
2021/10/22 09:10:20;;;;;;;4.20;0.90;;;;;;;9.84;50.29;98465.58;236092;1190;25055;-73
2021/10/22 09:15:25;;;;;;;2.10;0.90;;;;;;;9.92;49.33;98470.64;236000;1190;22435;-73
2021/10/22 09:20:28;;;;;;;2.30;0.70;;;;;;;9.99;50.19;98474.97;236251;1190;24084;-71
2021/10/22 09:25:32;;;;;;;3.70;0.70;;;;;;;10.09;50.38;98476.85;236252;1190;23981;-72
2021/10/22 09:30:45;;;;;;;5.60;0.90;;;;;;;10.24;49.76;98471.85;236082;1190;22588;-72
2021/10/22 09:35:57;;;;;;;2.20;0.80;;;;;;;10.29;48.39;98473.11;236545;1190;24049;-71
2021/10/22 09:41:07;;;;;;;3.30;0.90;;;;;;;10.33;48.28;98469.56;235571;1198;22576;-72
2021/10/22 09:46:21;;;;;;;1.90;0.60;;;;;;;10.39;48.49;98467.60;236120;1197;25163;-73
2021/10/22 09:51:28;;;;;;;1.20;0.40;;;;;;;10.51;46.96;98475.33;236062;1197;24037;-72
2021/10/22 09:56:31;;;;;;;4.20;0.80;;;;;;;10.51;46.49;98474.31;236081;1184;24206;-73
2021/10/22 10:01:36;;;;;;;1.80;0.70;;;;;;;10.56;48.20;98466.27;236169;1191;22469;-73
2021/10/22 10:06:52;;;;;;;4.00;1.10;;;;;;;10.74;48.16;98451.98;236619;1190;22769;-71
2021/10/22 10:12:14;;;;;;;3.00;1.00;;;;;;;10.85;47.57;98445.55;236262;1190;24063;-73
2021/10/22 10:17:19;;;;;;;2.10;1.10;;;;;;;10.95;47.46;98430.73;236175;1198;24015;-73
2021/10/22 10:22:29;;;;;;;3.10;0.90;;;;;;;11.01;47.16;98426.81;236277;1197;22422;-71
2021/10/22 10:27:47;;;;;;;4.40;0.90;;;;;;;11.11;46.55;98423.38;236345;1190;25109;-71
2021/10/22 10:32:50;;;;;;;2.50;0.90;;;;;;;11.25;46.70;98417.99;236145;1193;25051;-72
2021/10/22 10:37:53;;;;;;;6.60;0.70;;;;;;;11.35;45.77;98411.14;236405;1197;22482;-72
2021/10/22 10:43:01;;;;;;;2.20;0.70;;;;;;;11.39;45.20;98401.23;236042;1196;22424;-72
2021/10/22 10:48:10;;;;;;;2.00;0.80;;;;;;;11.46;44.90;98389.75;236083;1198;22427;-73
2021/10/22 10:53:39;;;;;;;2.10;0.90;;;;;;;11.64;46.22;98393.05;236104;1198;22430;-72
2021/10/22 10:59:02;;;;;;;2.50;0.70;;;;;;;12.07;45.83;98384.52;235945;1190;24078;-72
2021/10/22 11:04:07;;;;;;;1.60;1.10;;;;;;;12.13;44.19;98377.21;236132;1184;22437;-72
2021/10/22 11:09:36;;;;;;;3.00;0.90;;;;;;;12.10;43.71;98383.14;235962;1192;22448;-72
2021/10/22 11:14:56;;;;;;;2.60;0.90;;;;;;;12.16;43.04;98371.60;236130;1198;22584;-73
2021/10/22 11:20:00;;;;;;;2.20;0.70;;;;;;;12.31;43.19;98367.40;236033;1197;22445;-73
2021/10/22 11:25:18;;;;;;;3.80;0.60;;;;;;;12.36;42.27;98364.58;236109;1190;25098;-74
2021/10/22 11:30:55;;;;;;;2.90;0.70;;;;;;;12.17;42.37;98365.73;235745;1198;25082;-71
2021/10/22 11:35:59;;;;;;;2.20;0.70;;;;;;;11.85;41.78;98351.80;236167;1197;22449;-72
2021/10/22 11:41:13;;;;;;;1.90;0.60;;;;;;;11.64;43.13;98344.91;235920;1190;24021;-73
2021/10/22 11:46:19;;;;;;;2.00;0.70;;;;;;;11.39;42.94;98342.43;235869;1198;24041;-74
2021/10/22 11:51:21;;;;;;;1.90;0.60;;;;;;;11.21;44.07;98347.84;235918;1197;24107;-72
2021/10/22 11:56:25;;;;;;;2.70;0.70;;;;;;;11.02;43.74;98337.36;235981;1190;24045;-74
2021/10/22 12:01:31;;;;;;;2.70;0.50;;;;;;;10.90;44.11;98332.20;236277;1197;25150;-74
2021/10/22 12:06:36;;;;;;;1.20;0.60;;;;;;;10.88;43.81;98333.54;235847;1198;22437;-74
2021/10/22 12:11:39;;;;;;;0.70;0.50;;;;;;;10.96;43.85;98329.73;236021;1197;24072;-73
2021/10/22 12:16:43;;;;;;;1.20;0.70;;;;;;;11.13;44.21;98330.27;235893;1190;25013;-74
2021/10/22 12:21:50;;;;;;;1.60;0.70;;;;;;;11.37;44.37;98332.40;236198;1190;24000;-75
2021/10/22 12:27:05;;;;;;;1.70;0.80;;;;;;;11.59;43.49;98334.40;235906;1197;22899;-74
2021/10/22 12:32:08;;;;;;;1.10;0.40;;;;;;;11.70;42.87;98330.71;235925;1197;22488;-73
2021/10/22 12:37:14;;;;;;;2.30;0.80;;;;;;;11.74;42.73;98330.86;236161;1198;22458;-73
2021/10/22 12:42:23;;;;;;;1.20;0.80;;;;;;;11.85;43.01;98321.58;236097;1197;22420;-74
2021/10/22 12:47:40;;;;;;;0.80;0.60;;;;;;;11.96;42.46;98324.83;236122;1190;24027;-74
2021/10/22 12:52:55;;;;;;;1.60;0.90;;;;;;;12.03;42.11;98311.73;236052;1197;22483;-73
2021/10/22 12:58:22;;;;;;;1.40;0.50;;;;;;;12.04;41.22;98311.34;235860;1197;22450;-75
2021/10/22 13:03:27;;;;;;;1.50;0.70;;;;;;;12.08;41.95;98320.02;235935;1193;22405;-75
2021/10/22 13:08:44;;;;;;;4.40;3.20;;;;;;;12.13;42.42;98315.61;236133;1197;22430;-74
2021/10/22 13:13:59;;;;;;;0.90;0.50;;;;;;;12.18;41.68;98317.28;236232;1190;22398;-73
2021/10/22 13:24:26;;;;;;;2.10;0.50;;;;;;;12.15;41.74;98318.55;236175;1198;22901;-73
2021/10/22 13:29:42;;;;;;;0.80;0.50;;;;;;;12.17;41.67;98327.98;236169;1190;22450;-75
2021/10/22 13:34:55;;;;;;;1.30;0.60;;;;;;;12.15;40.83;98330.06;236082;1196;22641;-73
2021/10/22 13:39:59;;;;;;;1.50;0.80;;;;;;;12.05;40.78;98319.77;236329;1190;22438;-75
2021/10/22 13:45:05;;;;;;;1.10;0.60;;;;;;;11.92;41.57;98324.80;235900;1198;22675;-75
2021/10/22 13:50:08;;;;;;;1.40;0.70;;;;;;;11.85;41.21;98321.00;236189;1198;22539;-74
2021/10/22 13:55:27;;;;;;;1.20;0.50;;;;;;;11.82;41.15;98310.29;236239;1197;22440;-73
2021/10/22 14:00:43;;;;;;;1.50;0.70;;;;;;;11.75;41.27;98312.02;236667;1190;22420;-73
2021/10/22 14:06:05;;;;;;;1.30;0.70;;;;;;;11.60;40.75;98310.01;236863;1197;24034;-72
2021/10/22 14:11:19;;;;;;;2.10;0.80;;;;;;;11.53;41.15;98314.70;237270;1194;24085;-73
2021/10/22 14:16:45;;;;;;;2.50;0.90;;;;;;;11.48;41.29;98313.47;236311;1197;22440;-74
2021/10/22 14:32:39;;;;;;;1.20;0.90;;;;;;;11.33;40.71;98311.21;235894;1198;24104;-73
2021/10/22 14:37:42;;;;;;;2.10;1.00;;;;;;;11.26;40.40;98314.63;235854;1197;24047;-71
2021/10/22 14:42:45;;;;;;;2.40;0.90;;;;;;;11.20;39.87;98312.52;235815;1190;24050;-72
2021/10/22 14:48:13;;;;;;;2.60;0.90;;;;;;;11.12;39.38;98309.33;235860;1198;22467;-71
2021/10/22 14:58:25;;;;;;;1.30;0.50;;;;;;;10.90;39.66;98308.23;235905;1198;25170;-73
2021/10/22 15:03:28;;;;;;;1.40;0.70;;;;;;;10.75;39.66;98303.09;235929;1190;22536;-72
2021/10/22 15:08:32;;;;;;;1.80;0.80;;;;;;;10.61;40.06;98298.84;235913;1190;22449;-73
2021/10/22 15:13:34;;;;;;;2.50;1.20;;;;;;;10.48;39.92;98302.22;235797;1198;24024;-71
2021/10/22 15:18:43;;;;;;;2.50;1.20;;;;;;;10.35;40.18;98308.09;235808;1197;22438;-71
2021/10/22 15:23:50;;;;;;;2.60;1.20;;;;;;;10.24;40.45;98305.45;235922;1197;24078;-73
2021/10/22 15:28:53;;;;;;;2.40;1.30;;;;;;;10.12;40.69;98299.56;236183;1197;22392;-72
2021/10/22 15:34:01;;;;;;;4.10;1.60;;;;;;;9.99;40.85;98304.14;235935;1190;24213;-72
2021/10/22 15:39:04;;;;;;;2.00;1.10;;;;;;;9.84;41.32;98306.23;235863;1197;24018;-74
2021/10/22 15:44:10;;;;;;;3.90;1.90;;;;;;;9.68;41.68;98304.63;235971;1193;24225;-72
2021/10/22 15:49:13;;;;;;;3.40;1.60;;;;;;;9.53;42.13;98311.36;235826;1190;22446;-72
2021/10/22 15:54:16;;;;;;;3.70;1.40;;;;;;;9.37;42.54;98317.70;235908;1190;24794;-73
2021/10/22 15:59:18;;;;;;;5.60;2.20;;;;;;;9.21;43.04;98331.35;235913;1197;24047;-74
2021/10/22 16:04:23;;;;;;;5.70;2.90;;;;;;;9.07;43.50;98329.30;235759;1187;22419;-71
2021/10/22 16:09:38;;;;;;;4.50;2.50;;;;;;;8.97;43.83;98336.81;235793;1198;22539;-73
2021/10/22 16:15:03;;;;;;;3.90;2.30;;;;;;;8.92;44.14;98339.17;235828;1197;24946;-73
2021/10/22 16:20:08;;;;;;;2.60;1.80;;;;;;;8.85;44.42;98335.05;235964;1184;23992;-71
2021/10/22 16:25:10;;;;;;;4.00;2.20;;;;;;;8.76;44.69;98350.01;235880;1198;22596;-73
2021/10/22 16:30:13;;;;;;;6.50;3.50;;;;;;;8.71;44.89;98355.41;236044;1198;24028;-71
2021/10/22 16:40:37;;;;;;;3.70;2.30;;;;;;;8.64;45.30;98357.55;235857;1197;25318;-74
2021/10/22 16:45:47;;;;;;;4.90;2.00;;;;;;;8.58;45.54;98359.85;235853;1197;23976;-71
2021/10/22 16:50:50;;;;;;;3.90;1.90;;;;;;;8.52;45.72;98351.36;236152;1197;24267;-72
2021/10/22 16:55:53;;;;;;;4.00;1.70;;;;;;;8.47;45.85;98358.05;235994;1190;24050;-71
2021/10/22 17:00:56;;;;;;;4.30;2.20;;;;;;;8.41;46.07;98376.98;235807;1193;22901;-71
2021/10/22 17:05:59;;;;;;;5.20;2.80;;;;;;;8.36;46.24;98386.27;235963;1197;22461;-71
2021/10/22 17:11:03;;;;;;;5.30;2.70;;;;;;;8.32;46.41;98389.77;236053;1198;24140;-71
2021/10/22 17:16:07;;;;;;;9.20;3.60;;;;;;;8.26;46.71;98408.30;235826;1198;22424;-72
2021/10/22 17:21:11;;;;;;;7.80;3.20;;;;;;;8.18;46.75;98412.70;235748;1197;22433;-73
2021/10/22 17:26:14;;;;;;;10.70;5.30;;;;;;;8.10;47.07;98428.35;235852;1190;22550;-71
2021/10/22 17:31:16;;;;;;;8.20;4.00;;;;;;;8.01;47.46;98429.65;235960;1190;24151;-71
2021/10/22 17:36:20;;;;;;;6.70;3.70;;;;;;;7.98;47.55;98430.80;236052;1193;22439;-72
2021/10/22 17:41:24;;;;;;;7.90;3.30;;;;;;;7.95;47.60;98434.45;236067;1197;25955;-73
2021/10/22 17:46:28;;;;;;;8.90;3.60;;;;;;;7.89;47.81;98435.98;236146;1190;24046;-74
2021/10/22 17:51:31;;;;;;;7.30;3.90;;;;;;;7.82;48.13;98434.82;236234;1197;24171;-72
2021/10/22 17:56:34;;;;;;;7.40;3.20;;;;;;;7.73;48.15;98437.81;235701;1198;22503;-74
2021/10/22 18:01:37;;;;;;;6.30;2.50;;;;;;;7.63;48.40;98438.69;235956;1193;22447;-73
2021/10/22 18:06:40;;;;;;;4.60;2.00;;;;;;;7.58;48.60;98437.60;235864;1197;22583;-71
2021/10/22 18:11:45;;;;;;;5.40;2.20;;;;;;;7.53;48.52;98433.20;235874;1197;22433;-73
2021/10/22 18:16:49;;;;;;;5.10;2.50;;;;;;;7.48;48.42;98430.73;235756;1197;22587;-74
2021/10/22 18:21:52;;;;;;;5.10;1.90;;;;;;;7.46;48.83;98434.85;235854;1197;22457;-73
2021/10/22 18:26:54;;;;;;;4.50;2.20;;;;;;;7.46;48.71;98439.70;236242;1197;24175;-74
2021/10/22 18:31:58;;;;;;;4.70;2.10;;;;;;;7.43;48.97;98444.61;236078;1198;24714;-73
2021/10/22 18:37:02;;;;;;;5.30;2.10;;;;;;;7.40;49.19;98438.99;235707;1189;22914;-73
2021/10/22 18:42:06;;;;;;;4.30;2.00;;;;;;;7.39;49.09;98440.33;235960;1190;24223;-74
2021/10/22 18:47:12;;;;;;;5.20;2.20;;;;;;;7.36;49.27;98443.10;235762;1184;25214;-72
2021/10/22 18:52:16;;;;;;;4.80;2.40;;;;;;;7.36;49.31;98444.29;235819;1197;26307;-74
2021/10/22 18:57:23;;;;;;;3.90;1.90;;;;;;;7.35;49.47;98447.38;235815;1190;24138;-74
2021/10/22 19:02:26;;;;;;;5.30;2.00;;;;;;;7.31;49.58;98450.21;235594;1193;22452;-72
2021/10/22 19:07:28;;;;;;;3.20;1.60;;;;;;;7.25;49.63;98452.17;235886;1190;24224;-73
2021/10/22 19:12:31;;;;;;;4.70;2.40;;;;;;;7.22;49.97;98456.55;235995;1190;24037;-72
2021/10/22 19:17:35;;;;;;;6.10;2.40;;;;;;;7.23;49.97;98459.97;235883;1198;25285;-73
2021/10/22 19:22:40;;;;;;;6.10;1.90;;;;;;;7.20;50.24;98457.05;235782;1198;25107;-74
2021/10/22 19:27:42;;;;;;;6.30;2.60;;;;;;;7.17;50.29;98458.66;235948;1197;22455;-72
2021/10/22 19:32:45;;;;;;;4.20;1.70;;;;;;;7.14;50.46;98454.52;235733;1197;23993;-72
2021/10/22 19:37:51;;;;;;;4.30;2.10;;;;;;;7.14;50.64;98456.23;235970;1193;24145;-72
2021/10/22 19:42:53;;;;;;;5.60;2.10;;;;;;;7.16;50.60;98459.40;235821;1190;22677;-74
2021/10/22 19:47:56;;;;;;;5.30;1.80;;;;;;;7.14;50.64;98453.45;235818;1197;24893;-72
2021/10/22 19:52:58;;;;;;;5.70;1.50;;;;;;;7.13;50.70;98449.30;235898;1190;24028;-73
2021/10/22 19:58:02;;;;;;;7.10;2.90;;;;;;;7.15;50.64;98446.25;235705;1190;26292;-71
2021/10/22 20:03:05;;;;;;;6.70;2.60;;;;;;;7.18;50.62;98452.10;235774;1197;24993;-73
2021/10/22 20:08:08;;;;;;;4.60;1.70;;;;;;;7.16;50.26;98466.22;235816;1197;24184;-74
2021/10/22 20:13:10;;;;;;;4.10;2.00;;;;;;;7.14;50.66;98480.52;235730;1197;24114;-72
2021/10/22 20:18:14;;;;;;;4.80;1.70;;;;;;;7.14;50.44;98481.58;235816;1177;23988;-74
2021/10/22 20:23:16;;;;;;;3.70;1.60;;;;;;;7.15;50.45;98481.20;235706;1198;24076;-74
2021/10/22 20:28:20;;;;;;;2.70;1.40;;;;;;;7.17;50.44;98481.14;235632;1191;24186;-72
2021/10/22 20:33:22;;;;;;;4.70;1.80;;;;;;;7.14;50.64;98480.67;235934;1198;24142;-71
2021/10/22 20:38:25;;;;;;;3.90;1.40;;;;;;;7.11;50.87;98482.44;235950;1198;22460;-74
2021/10/22 20:43:27;;;;;;;5.30;1.60;;;;;;;7.09;50.82;98486.71;235909;1196;24034;-74
2021/10/22 20:59:07;;;;;;;2.50;1.20;;;;;;;7.20;50.63;98502.93;235815;1190;24069;-72
2021/10/22 21:04:09;;;;;;;4.00;1.50;;;;;;;7.25;50.61;98507.23;235797;1198;24055;-72
2021/10/22 21:09:12;;;;;;;4.70;1.70;;;;;;;7.31;51.24;98515.67;235978;1190;24063;-73
2021/10/22 21:14:20;;;;;;;4.20;1.80;;;;;;;7.35;50.61;98521.99;235946;1197;24171;-73
2021/10/22 21:19:37;;;;;;;4.00;1.50;;;;;;;7.38;50.68;98531.41;235746;1174;24071;-73
2021/10/22 21:24:40;;;;;;;4.00;1.40;;;;;;;7.37;50.49;98534.35;235712;1198;24044;-74
2021/10/22 21:29:42;;;;;;;4.30;1.50;;;;;;;7.36;50.60;98541.88;235723;1198;24192;-73
2021/10/22 21:34:45;;;;;;;2.20;1.20;;;;;;;7.33;50.62;98540.92;235799;1197;25098;-73
2021/10/22 21:39:48;;;;;;;3.20;1.30;;;;;;;7.32;50.85;98548.55;235749;1197;24095;-72
2021/10/22 21:44:52;;;;;;;4.80;1.50;;;;;;;7.30;51.08;98547.39;235879;1197;24004;-74
2021/10/22 21:49:54;;;;;;;2.10;1.20;;;;;;;7.29;51.25;98551.12;235719;1193;24030;-74
2021/10/22 21:54:57;;;;;;;5.10;1.60;;;;;;;7.23;51.18;98552.41;235743;1190;24028;-73
2021/10/22 22:00:00;;;;;;;3.50;1.40;;;;;;;7.17;51.24;98561.33;235838;1197;24109;-71
2021/10/22 22:05:11;;;;;;;6.10;2.10;;;;;;;7.11;51.35;98567.73;235785;1190;25106;-73
2021/10/22 22:10:14;;;;;;;3.40;1.60;;;;;;;7.04;51.57;98574.84;235866;1198;22457;-74
2021/10/22 22:15:33;;;;;;;3.90;1.50;;;;;;;6.95;51.67;98579.75;235884;1190;24053;-73
2021/10/22 22:21:03;;;;;;;4.80;1.80;;;;;;;6.81;52.02;98582.23;235623;1193;25302;-73
2021/10/22 22:26:19;;;;;;;9.40;1.80;;;;;;;6.66;52.50;98590.70;235859;1198;24142;-74
2021/10/22 22:31:22;;;;;;;5.10;1.70;;;;;;;6.50;52.69;98590.01;235898;1198;26194;-74
2021/10/22 22:36:24;;;;;;;5.60;1.80;;;;;;;6.38;53.42;98592.45;235794;1197;24005;-74
2021/10/22 22:41:27;;;;;;;5.80;1.50;;;;;;;6.26;53.92;98593.35;235833;1190;24209;-72
2021/10/22 22:46:30;;;;;;;5.20;1.70;;;;;;;6.18;53.85;98598.27;236025;1198;24183;-73
2021/10/22 22:51:33;;;;;;;4.50;1.60;;;;;;;6.16;54.28;98602.20;235869;1197;24791;-74
2021/10/22 22:56:36;;;;;;;4.50;1.60;;;;;;;6.16;54.42;98609.55;235804;1198;24092;-71
2021/10/22 23:01:38;;;;;;;5.00;1.30;;;;;;;6.16;54.46;98617.21;235759;1198;24092;-74
2021/10/22 23:06:41;;;;;;;6.20;1.60;;;;;;;6.14;54.68;98618.47;235809;1193;25297;-73
2021/10/22 23:11:44;;;;;;;5.00;1.50;;;;;;;6.15;55.11;98622.63;235793;1190;24254;-71
2021/10/22 23:16:47;;;;;;;3.30;1.60;;;;;;;6.15;55.08;98623.05;235731;1197;24053;-74
2021/10/22 23:21:50;;;;;;;6.80;1.90;;;;;;;6.13;55.35;98629.59;235761;1198;24081;-74
2021/10/22 23:26:52;;;;;;;4.10;1.70;;;;;;;6.11;55.48;98639.91;235864;1198;24213;-74
2021/10/22 23:31:55;;;;;;;5.20;1.40;;;;;;;6.10;55.48;98653.03;235744;1197;22950;-73
2021/10/22 23:36:57;;;;;;;3.40;1.40;;;;;;;6.10;56.18;98657.19;235735;1198;24599;-72
2021/10/22 23:42:00;;;;;;;5.60;1.60;;;;;;;6.09;55.93;98673.14;235765;1197;24127;-73
2021/10/22 23:47:04;;;;;;;3.30;1.20;;;;;;;6.09;56.18;98683.99;235788;1197;24613;-73
2021/10/22 23:52:08;;;;;;;3.60;1.40;;;;;;;6.12;56.04;98692.04;235882;1197;22479;-72
2021/10/22 23:57:10;;;;;;;3.60;1.20;;;;;;;6.23;56.06;98703.73;235629;1193;25276;-73
